Time;durP1;ratioP1;P1;durP2;ratioP2;P2;SDS_P1;SDS_P2;PMS_P1;PMS_P2;Temp;Humidity;BMP_temperature;BMP_pressure;BME280_temperature;BME280_humidity;BME280_pressure;Samples;Min_cycle;Max_cycle;Signal;HPM_P1;HPM_P2
2024/02/06 00:01:37;;;;;;;11.52;2.55;;;6.50;99.90;;;;;;5051196;28;19979;-67
2024/02/06 00:04:03;;;;;;;;;;;6.50;99.90;;;;;;5033663;28;20041;-67
2024/02/06 00:06:28;;;;;;;4.72;1.77;;;6.50;99.90;;;;;;5050967;28;20428;-67
2024/02/06 00:08:54;;;;;;;;;;;6.40;99.90;;;;;;5033334;28;20040;-67
2024/02/06 00:11:19;;;;;;;4.57;1.17;;;6.50;99.90;;;;;;5050892;28;19908;-67
2024/02/06 00:13:45;;;;;;;;;;;6.50;99.90;;;;;;5051008;28;20379;-67
2024/02/06 00:16:12;;;;;;;10.27;1.85;;;6.50;99.90;;;;;;5032768;28;20038;-67
2024/02/06 00:18:38;;;;;;;8.23;2.15;;;6.40;99.90;;;;;;5050647;28;20025;-67
2024/02/06 00:21:04;;;;;;;;;;;6.40;99.90;;;;;;5033085;28;20082;-67
2024/02/06 00:23:29;;;;;;;4.47;1.50;;;6.40;99.90;;;;;;5032388;28;19921;-67
2024/02/06 00:25:55;;;;;;;;;;;6.40;99.90;;;;;;5033048;28;20414;-67
2024/02/06 00:28:21;;;;;;;5.20;1.92;;;6.30;99.90;;;;;;5050509;28;19919;-67
2024/02/06 00:30:47;;;;;;;;;;;6.20;99.90;;;;;;5051097;28;20412;-73
2024/02/06 00:33:14;;;;;;;15.67;2.03;;;6.20;99.90;;;;;;5050565;28;20413;-67
2024/02/06 00:35:39;;;;;;;6.35;2.05;;;6.20;99.90;;;;;;5050560;28;20070;-68
2024/02/06 00:38:05;;;;;;;;;;;6.20;99.90;;;;;;5051078;28;20037;-67
2024/02/06 00:40:31;;;;;;;7.30;1.90;;;6.20;99.90;;;;;;5050533;28;19919;-68
2024/02/06 00:42:56;;;;;;;;;;;6.10;99.90;;;;;;5050881;28;20032;-68
2024/02/06 00:45:22;;;;;;;8.30;1.77;;;6.10;99.90;;;;;;5050958;28;20383;-70
2024/02/06 00:47:49;;;;;;;;;;;6.10;99.90;;;;;;5034910;28;20592;-68
2024/02/06 00:50:18;;;;;;;4.88;1.85;;;6.10;99.90;;;;;;5051035;28;19951;-67
2024/02/06 00:52:43;;;;;;;7.60;1.27;;;6.10;99.90;;;;;;5050427;28;20037;-67
2024/02/06 00:55:09;;;;;;;;;;;6.10;99.90;;;;;;5050580;28;20033;-67
2024/02/06 00:57:35;;;;;;;8.20;1.42;;;6.00;99.90;;;;;;5049870;28;19954;-67
2024/02/06 01:00:01;;;;;;;;;;;6.10;99.90;;;;;;5050432;28;20490;-67
2024/02/06 01:02:26;;;;;;;7.07;1.02;;;6.20;99.90;;;;;;5049906;28;19912;-66
2024/02/06 01:04:53;;;;;;;;;;;6.30;99.90;;;;;;5050244;28;20040;-67
2024/02/06 01:07:19;;;;;;;7.47;1.87;;;6.40;99.90;;;;;;5034136;28;20289;-69
2024/02/06 01:09:45;;;;;;;;;;;6.40;99.90;;;;;;5036292;28;20029;-74
2024/02/06 01:12:10;;;;;;;7.63;2.03;;;6.40;99.90;;;;;;5032053;28;19913;-68
2024/02/06 01:14:36;;;;;;;;;;;6.40;99.90;;;;;;5054929;28;20456;-69
2024/02/06 01:17:02;;;;;;;9.82;1.63;;;6.30;99.90;;;;;;5054192;28;20470;-68
2024/02/06 01:19:28;;;;;;;10.75;2.10;;;6.30;99.90;;;;;;5052793;28;20021;-66
2024/02/06 01:21:54;;;;;;;;;;;6.30;99.90;;;;;;5050520;28;20587;-65
2024/02/06 01:24:19;;;;;;;8.38;1.35;;;6.30;99.90;;;;;;5049636;28;19916;-65
2024/02/06 01:26:45;;;;;;;;;;;6.30;99.90;;;;;;5031905;28;20094;-66
2024/02/06 01:29:10;;;;;;;6.70;1.52;;;6.30;99.90;;;;;;5049290;28;20292;-66
2024/02/06 01:31:36;;;;;;;;;;;6.30;99.90;;;;;;5049753;28;20075;-67
2024/02/06 01:34:02;;;;;;;12.50;1.45;;;6.30;99.90;;;;;;5049357;28;20542;-67
2024/02/06 01:36:27;;;;;;;;;;;6.30;99.90;;;;;;5049734;28;20033;-65
2024/02/06 01:38:53;;;;;;;8.25;1.83;;;6.40;99.90;;;;;;5049285;28;20671;-67
2024/02/06 01:41:18;;;;;;;;;;;6.50;99.90;;;;;;5031680;28;20028;-68
2024/02/06 01:43:44;;;;;;;9.10;1.25;;;6.50;99.90;;;;;;5031298;28;19951;-68
2024/02/06 01:46:10;;;;;;;;;;;6.50;99.90;;;;;;5049554;28;20032;-66
2024/02/06 01:48:36;;;;;;;8.73;1.50;;;6.60;99.90;;;;;;5049003;28;20361;-67
2024/02/06 01:51:03;;;;;;;6.93;1.70;;;6.60;99.90;;;;;;5048822;28;20039;-67
2024/02/06 01:53:30;;;;;;;8.13;1.23;;;6.70;99.90;;;;;;5048962;28;20615;-67
2024/02/06 01:55:56;;;;;;;6.40;1.45;;;6.80;99.90;;;;;;5048802;28;20103;-68
2024/02/06 01:58:22;;;;;;;;;;;6.80;99.90;;;;;;5049145;28;20116;-67
2024/02/06 02:00:49;;;;;;;14.07;1.83;;;6.70;99.90;;;;;;5048916;28;20634;-68
2024/02/06 02:03:14;;;;;;;6.60;1.65;;;6.70;99.90;;;;;;5048709;28;20283;-67
2024/02/06 02:05:42;;;;;;;;;;;6.80;99.90;;;;;;5031391;28;20171;-67
2024/02/06 02:08:08;;;;;;;9.38;2.00;;;6.70;99.90;;;;;;5048695;28;19908;-67
2024/02/06 02:10:34;;;;;;;;;;;6.70;99.90;;;;;;5049225;28;20037;-68
2024/02/06 02:12:59;;;;;;;8.05;2.70;;;6.80;99.90;;;;;;5048835;28;19916;-67
2024/02/06 02:15:25;;;;;;;;;;;6.70;99.90;;;;;;5049150;28;20025;-67
2024/02/06 02:17:51;;;;;;;7.22;1.33;;;6.70;99.90;;;;;;5030949;28;19977;-67
2024/02/06 02:20:20;;;;;;;11.15;2.22;;;6.70;99.90;;;;;;5048909;28;20025;-68
2024/02/06 02:22:45;;;;;;;13.68;1.77;;;6.70;99.90;;;;;;5048194;28;20056;-67
2024/02/06 02:25:11;;;;;;;;;;;6.70;99.90;;;;;;5048991;28;20562;-67
2024/02/06 02:27:37;;;;;;;9.95;2.00;;;6.70;99.90;;;;;;5048689;28;19908;-67
2024/02/06 02:30:03;;;;;;;;;;;6.60;99.90;;;;;;5048802;28;20033;-67
2024/02/06 02:32:30;;;;;;;13.20;2.35;;;6.70;99.90;;;;;;5048367;28;19931;-67
2024/02/06 02:34:55;;;;;;;8.38;2.40;;;6.70;99.90;;;;;;5048444;28;20037;-67
2024/02/06 02:37:21;;;;;;;;;;;6.90;99.90;;;;;;5047514;28;20036;-67
2024/02/06 02:39:48;;;;;;;14.13;2.53;;;6.80;99.90;;;;;;5048410;28;20372;-67
2024/02/06 02:42:13;;;;;;;6.80;1.60;;;6.90;99.90;;;;;;5048384;28;20493;-68
2024/02/06 02:44:39;;;;;;;;;;;7.00;99.90;;;;;;5048828;28;20052;-67
2024/02/06 02:47:04;;;;;;;8.57;1.63;;;7.00;99.90;;;;;;5030353;28;19963;-67
2024/02/06 02:49:30;;;;;;;;;;;6.90;99.90;;;;;;5030840;28;20060;-67
2024/02/06 02:51:56;;;;;;;16.13;3.38;;;6.90;99.90;;;;;;5048356;28;19908;-66
2024/02/06 02:54:23;;;;;;;;;;;6.80;99.90;;;;;;5048718;28;20025;-67
2024/02/06 02:56:49;;;;;;;7.13;2.38;;;6.70;99.90;;;;;;5048209;28;20652;-68
2024/02/06 02:59:14;;;;;;;;;;;6.60;99.90;;;;;;5048732;28;20028;-67
2024/02/06 03:01:40;;;;;;;9.55;1.80;;;6.60;99.90;;;;;;5048167;28;19920;-67
2024/02/06 03:04:06;;;;;;;;;;;6.50;99.90;;;;;;5048567;28;20037;-67
2024/02/06 03:06:31;;;;;;;17.48;2.70;;;6.40;99.90;;;;;;5048102;28;19916;-67
2024/02/06 03:08:57;;;;;;;;;;;6.40;99.90;;;;;;5030489;28;20486;-67
2024/02/06 03:11:25;;;;;;;10.50;1.98;;;6.40;99.90;;;;;;5030295;28;19991;-67
2024/02/06 03:13:51;;;;;;;7.63;2.88;;;6.40;99.90;;;;;;5048117;28;20021;-66
2024/02/06 03:16:16;;;;;;;;;;;6.30;99.90;;;;;;5031128;28;20033;-67
2024/02/06 03:18:42;;;;;;;9.20;1.80;;;6.30;99.90;;;;;;5030493;28;19908;-66
2024/02/06 03:21:08;;;;;;;;;;;6.20;99.90;;;;;;5048713;28;20048;-66
2024/02/06 03:23:34;;;;;;;7.70;1.58;;;6.20;99.90;;;;;;5048018;28;19920;-67
2024/02/06 03:26:01;;;;;;;10.25;2.90;;;6.10;99.90;;;;;;5030539;28;20036;-68
2024/02/06 03:28:26;;;;;;;6.53;1.30;;;6.10;99.90;;;;;;5048125;28;20535;-67
2024/02/06 03:30:52;;;;;;;;;;;6.10;99.90;;;;;;5050456;28;20497;-68
2024/02/06 03:33:18;;;;;;;12.18;1.60;;;6.10;99.90;;;;;;5052666;28;20016;-69
2024/02/06 03:35:44;;;;;;;;;;;6.20;99.90;;;;;;5052478;28;20057;-68
2024/02/06 03:38:09;;;;;;;9.40;2.00;;;6.10;99.90;;;;;;5051634;28;19913;-67
2024/02/06 03:40:35;;;;;;;;;;;6.10;99.90;;;;;;5033955;28;20573;-67
2024/02/06 03:43:00;;;;;;;11.95;1.80;;;6.20;99.90;;;;;;5051401;28;19978;-67
2024/02/06 03:45:26;;;;;;;;;;;6.20;99.90;;;;;;5033882;28;20076;-67
2024/02/06 03:47:52;;;;;;;9.88;2.40;;;6.20;99.90;;;;;;5033291;28;19908;-67
2024/02/06 03:50:17;;;;;;;;;;;6.20;99.90;;;;;;5051602;28;20079;-67
2024/02/06 03:52:43;;;;;;;6.93;1.77;;;6.20;99.90;;;;;;5051271;28;19908;-67
2024/02/06 03:55:09;;;;;;;18.02;4.85;;;6.10;99.90;;;;;;5051241;28;20041;-67
2024/02/06 03:57:35;;;;;;;;;;;6.10;99.90;;;;;;5033840;28;20075;-68
2024/02/06 04:00:01;;;;;;;9.60;3.95;;;6.10;99.90;;;;;;5051044;28;19912;-66
2024/02/06 04:02:27;;;;;;;;;;;6.00;99.90;;;;;;5051605;28;20067;-67
2024/02/06 04:04:53;;;;;;;13.35;3.90;;;6.00;99.90;;;;;;5050862;28;19939;-67
2024/02/06 04:07:18;;;;;;;;;;;5.90;99.90;;;;;;5051275;28;20025;-67
2024/02/06 04:09:44;;;;;;;7.15;2.92;;;5.80;99.90;;;;;;5033391;28;19908;-66
2024/02/06 04:12:10;;;;;;;;;;;5.80;99.90;;;;;;5051281;28;20045;-67
2024/02/06 04:14:36;;;;;;;5.93;2.55;;;5.80;99.90;;;;;;5032773;28;19959;-68
2024/02/06 04:17:01;;;;;;;11.38;3.05;;;5.70;99.90;;;;;;5050749;28;20128;-67
2024/02/06 04:19:27;;;;;;;;;;;5.70;99.90;;;;;;5051088;28;20195;-67
2024/02/06 04:21:52;;;;;;;6.53;2.20;;;5.60;99.90;;;;;;5050584;28;19986;-67
2024/02/06 04:24:18;;;;;;;;;;;5.60;99.90;;;;;;5050746;28;20056;-68
2024/02/06 04:26:45;;;;;;;8.70;2.40;;;5.60;99.90;;;;;;5050554;28;19935;-67
2024/02/06 04:29:11;;;;;;;16.00;3.60;;;5.50;99.90;;;;;;5032468;28;20029;-67
2024/02/06 04:31:37;;;;;;;13.65;4.07;;;5.50;99.90;;;;;;5054499;28;20035;-68
2024/02/06 04:34:02;;;;;;;;;;;5.50;99.90;;;;;;5056020;28;20025;-66
2024/02/06 04:36:28;;;;;;;14.55;3.38;;;5.60;99.90;;;;;;5050925;28;20497;-67
2024/02/06 04:38:53;;;;;;;;;;;5.50;99.90;;;;;;5055420;28;20021;-71
2024/02/06 04:41:19;;;;;;;14.35;3.65;;;5.40;99.90;;;;;;5055655;28;20379;-67
2024/02/06 04:43:45;;;;;;;;;;;5.40;99.90;;;;;;5053453;28;20032;-70
2024/02/06 04:46:10;;;;;;;8.55;2.75;;;5.30;99.90;;;;;;5050176;28;19931;-66
2024/02/06 04:48:36;;;;;;;;;;;5.30;99.90;;;;;;5032853;28;20112;-70
2024/02/06 04:51:01;;;;;;;24.98;3.58;;;5.20;99.90;;;;;;5050125;28;19965;-67
2024/02/06 04:53:28;;;;;;;;;;;5.10;99.90;;;;;;5050502;28;20025;-66
2024/02/06 04:55:53;;;;;;;9.43;2.60;;;5.10;99.90;;;;;;5031764;28;19916;-67
2024/02/06 04:58:19;;;;;;;;;;;5.00;99.90;;;;;;5050254;28;20028;-68
2024/02/06 05:00:45;;;;;;;9.07;1.80;;;4.80;99.90;;;;;;5049847;28;19908;-65
2024/02/06 05:03:10;;;;;;;;;;;4.80;99.90;;;;;;5050074;28;20086;-67
2024/02/06 05:05:36;;;;;;;14.18;3.15;;;4.80;99.90;;;;;;5032187;28;19965;-66
2024/02/06 05:08:02;;;;;;;;;;;4.70;99.90;;;;;;5050007;28;20511;-70
2024/02/06 05:10:27;;;;;;;19.02;4.78;;;4.70;99.90;;;;;;5049675;28;20395;-68
2024/02/06 05:12:54;;;;;;;;;;;4.60;99.90;;;;;;5050068;28;20108;-66
2024/02/06 05:15:20;;;;;;;11.02;3.78;;;4.50;99.90;;;;;;5031766;28;19955;-67
2024/02/06 05:17:46;;;;;;;;;;;4.50;99.90;;;;;;5049950;28;20536;-69
2024/02/06 05:20:12;;;;;;;13.85;6.20;;;4.40;99.90;;;;;;5031495;28;19963;-67
2024/02/06 05:22:39;;;;;;;12.80;5.25;;;4.30;99.90;;;;;;5049318;28;20052;-68
2024/02/06 05:25:05;;;;;;;14.95;6.68;;;4.30;99.90;;;;;;5049287;28;20747;-67
2024/02/06 05:27:31;;;;;;;14.80;4.85;;;4.20;99.90;;;;;;5049318;28;20028;-69
2024/02/06 05:29:57;;;;;;;10.30;4.32;;;4.10;99.90;;;;;;5047569;28;20024;-69
2024/02/06 05:32:23;;;;;;;;;;;4.10;99.90;;;;;;5049685;28;20036;-67
2024/02/06 05:34:53;;;;;;;7.65;2.83;;;4.00;99.90;;;;;;5049290;28;19930;-65
2024/02/06 05:37:19;;;;;;;12.35;3.03;;;3.90;99.90;;;;;;5049043;28;20401;-67
2024/02/06 05:39:44;;;;;;;;;;;3.80;99.90;;;;;;5049640;28;20036;-66
2024/02/06 05:42:11;;;;;;;14.07;4.80;;;3.80;99.90;;;;;;5048858;28;19912;-66
2024/02/06 05:44:38;;;;;;;8.95;4.10;;;3.70;99.90;;;;;;5048659;28;20081;-67
2024/02/06 05:47:04;;;;;;;17.67;3.60;;;3.70;99.90;;;;;;5048872;28;20032;-66
2024/02/06 05:49:29;;;;;;;;;;;3.80;99.90;;;;;;5031538;28;20024;-67
2024/02/06 05:51:55;;;;;;;28.10;11.82;;;3.70;99.90;;;;;;5048926;28;19908;-67
2024/02/06 05:54:21;;;;;;;;;;;3.60;99.90;;;;;;5048977;28;20119;-67
2024/02/06 05:56:48;;;;;;;59.83;22.80;;;3.60;99.90;;;;;;5031185;28;20388;-67
2024/02/06 05:59:13;;;;;;;70.60;26.33;;;3.50;99.90;;;;;;5025480;28;20104;-67
2024/02/06 06:01:39;;;;;;;;;;;3.50;99.90;;;;;;5049485;28;20155;-67
2024/02/06 06:04:04;;;;;;;63.35;26.58;;;3.40;99.90;;;;;;5048952;28;19912;-67
2024/02/06 06:06:30;;;;;;;;;;;3.40;99.90;;;;;;5049486;28;20120;-66
2024/02/06 06:08:56;;;;;;;55.28;24.48;;;3.40;99.90;;;;;;5031548;28;19905;-66
2024/02/06 06:11:21;;;;;;;;;;;3.40;99.90;;;;;;5049719;28;20040;-67
2024/02/06 06:13:47;;;;;;;47.15;19.77;;;3.30;99.90;;;;;;5033336;28;19908;-68
2024/02/06 06:16:12;;;;;;;;;;;3.30;99.90;;;;;;5052434;28;20075;-69
2024/02/06 06:18:38;;;;;;;52.53;22.52;;;3.20;99.90;;;;;;5049016;28;19908;-68
2024/02/06 06:21:03;;;;;;;;;;;3.30;99.90;;;;;;5049027;28;20531;-67
2024/02/06 06:23:29;;;;;;;37.97;15.60;;;3.30;99.90;;;;;;5048473;28;19920;-68
2024/02/06 06:25:56;;;;;;;;;;;3.30;99.90;;;;;;5048876;28;20056;-67
2024/02/06 06:28:22;;;;;;;34.90;13.65;;;3.30;99.90;;;;;;5048448;28;19905;-66
2024/02/06 06:30:47;;;;;;;;;;;3.40;99.90;;;;;;5048932;28;20030;-64
2024/02/06 06:33:13;;;;;;;25.83;10.95;;;3.50;99.90;;;;;;5048267;28;19905;-67
2024/02/06 06:35:38;;;;;;;;;;;3.60;99.90;;;;;;5048952;28;20580;-66
2024/02/06 06:38:04;;;;;;;31.75;12.10;;;3.60;99.90;;;;;;5048410;28;20454;-67
2024/02/06 06:40:29;;;;;;;;;;;3.70;99.90;;;;;;5051382;28;20127;-67
2024/02/06 06:42:55;;;;;;;39.95;16.60;;;3.80;99.90;;;;;;5057014;28;19916;-67
2024/02/06 06:45:20;;;;;;;;;;;3.90;99.90;;;;;;5052989;28;20036;-67
2024/02/06 06:47:46;;;;;;;38.90;17.73;;;4.00;99.90;;;;;;5049758;28;19919;-68
2024/02/06 06:50:12;;;;;;;;;;;4.20;99.90;;;;;;5050752;28;20040;-67
2024/02/06 06:52:41;;;;;;;69.60;25.30;;;4.60;99.90;;;;;;5050268;28;20029;-67
2024/02/06 06:55:08;;;;;;;55.72;23.95;;;5.10;99.90;;;;;;5068062;28;20029;-68
2024/02/06 06:57:35;;;;;;;57.17;21.70;;;5.60;99.90;;;;;;5068195;28;20396;-68
2024/02/06 07:00:01;;;;;;;57.35;25.63;;;6.10;99.90;;;;;;5060957;28;20115;-68
2024/02/06 07:02:27;;;;;;;70.03;28.95;;;6.50;99.90;;;;;;5055449;28;20025;-68
2024/02/06 07:04:55;;;;;;;;;;;7.00;99.90;;;;;;5048512;28;20079;-67
2024/02/06 07:07:20;;;;;;;56.55;26.08;;;7.40;99.90;;;;;;5051715;28;19909;-68
2024/02/06 07:09:46;;;;;;;;;;;7.70;99.90;;;;;;5060420;28;20107;-66
2024/02/06 07:12:12;;;;;;;53.15;21.63;;;8.10;98.90;;;;;;5062558;28;19912;-68
2024/02/06 07:14:37;;;;;;;;;;;8.50;98.60;;;;;;5061435;28;20032;-68
2024/02/06 07:17:05;;;;;;;47.70;19.85;;;9.00;95.30;;;;;;5040351;28;20392;-68
2024/02/06 07:19:31;;;;;;;44.70;20.13;;;9.40;95.10;;;;;;5049997;28;20044;-67
2024/02/06 07:21:57;;;;;;;52.17;19.38;;;9.80;92.30;;;;;;5071468;28;20033;-67
2024/02/06 07:24:26;;;;;;;;;;;10.10;90.40;;;;;;5053900;28;20055;-67
2024/02/06 07:26:52;;;;;;;47.60;17.13;;;10.40;83.70;;;;;;5071585;28;19919;-66
2024/02/06 07:29:18;;;;;;;35.03;14.00;;;10.80;83.80;;;;;;5070131;28;20029;-68
2024/02/06 07:31:44;;;;;;;29.23;9.90;;;10.90;82.90;;;;;;5071606;28;20029;-68
2024/02/06 07:34:10;;;;;;;22.80;8.55;;;11.10;76.30;;;;;;5070512;28;20029;-68
2024/02/06 07:36:35;;;;;;;;;;;11.30;72.10;;;;;;5071874;28;20036;-68
2024/02/06 07:39:01;;;;;;;15.98;4.70;;;11.40;65.50;;;;;;5071527;28;19912;-68
2024/02/06 07:41:26;;;;;;;;;;;11.60;67.20;;;;;;5053868;28;20056;-69
2024/02/06 07:43:52;;;;;;;10.13;4.22;;;11.90;60.30;;;;;;5071236;28;20050;-67
2024/02/06 07:46:18;;;;;;;;;;;12.20;58.80;;;;;;5071649;28;20051;-68
2024/02/06 07:48:44;;;;;;;10.57;5.03;;;12.40;53.50;;;;;;5071220;28;19916;-68
2024/02/06 07:51:11;;;;;;;;;;;12.50;54.60;;;;;;5071725;28;20040;-68
2024/02/06 07:53:37;;;;;;;14.18;5.38;;;12.50;52.30;;;;;;5071056;28;19995;-68
2024/02/06 07:56:04;;;;;;;14.48;5.68;;;12.50;53.40;;;;;;5071260;28;20103;-68
2024/02/06 07:58:30;;;;;;;14.82;5.32;;;12.40;53.80;;;;;;5071145;28;20028;-68
2024/02/06 08:00:57;;;;;;;11.45;5.10;;;12.30;53.70;;;;;;5070697;28;20113;-68
2024/02/06 08:03:22;;;;;;;10.60;5.10;;;12.30;54.70;;;;;;5053141;28;20039;-68
2024/02/06 08:05:48;;;;;;;;;;;12.30;54.60;;;;;;5070942;28;20509;-68
2024/02/06 08:08:13;;;;;;;10.45;5.45;;;12.30;53.30;;;;;;5070857;28;19916;-68
2024/02/06 08:10:39;;;;;;;;;;;12.30;53.90;;;;;;5071110;28;20036;-68
2024/02/06 08:13:05;;;;;;;16.50;5.55;;;12.30;52.50;;;;;;5070792;28;19912;-68
2024/02/06 08:15:30;;;;;;;13.43;5.57;;;12.30;53.10;;;;;;5070733;28;20056;-68
2024/02/06 08:17:56;;;;;;;;;;;12.20;52.80;;;;;;5070800;28;20033;-68
2024/02/06 08:20:21;;;;;;;13.63;4.93;;;12.10;53.20;;;;;;5052708;28;19909;-68
2024/02/06 08:22:49;;;;;;;16.00;5.28;;;12.10;52.80;;;;;;5044283;28;20128;-68
2024/02/06 08:25:17;;;;;;;12.68;5.53;;;12.10;53.60;;;;;;5030688;28;20041;-68
2024/02/06 08:27:46;;;;;;;13.18;4.93;;;12.10;53.70;;;;;;5030666;28;20028;-67
2024/02/06 08:30:13;;;;;;;16.58;5.70;;;12.10;53.70;;;;;;5030758;28;20029;-67
2024/02/06 08:32:38;;;;;;;14.18;6.00;;;12.00;54.00;;;;;;5030523;28;20589;-68
2024/02/06 08:35:04;;;;;;;;;;;12.00;54.20;;;;;;5030856;28;20104;-68
2024/02/06 08:37:31;;;;;;;13.63;6.50;;;12.20;53.10;;;;;;5030252;28;19909;-68
2024/02/06 08:39:57;;;;;;;11.60;6.10;;;12.30;54.40;;;;;;5030554;28;20024;-68
2024/02/06 08:42:22;;;;;;;12.45;6.18;;;12.50;54.00;;;;;;5030432;28;20029;-68
2024/02/06 08:44:48;;;;;;;;;;;12.80;52.10;;;;;;5030486;28;20052;-69
2024/02/06 08:47:14;;;;;;;15.35;7.22;;;13.00;50.80;;;;;;5030030;28;19909;-69
2024/02/06 08:49:39;;;;;;;;;;;13.10;51.90;;;;;;5029421;28;20040;-68
2024/02/06 08:52:05;;;;;;;13.90;5.97;;;13.30;50.40;;;;;;5030250;28;20427;-68
2024/02/06 08:54:30;;;;;;;;;;;13.50;50.40;;;;;;5030694;28;20037;-69
2024/02/06 08:56:57;;;;;;;20.45;6.25;;;13.60;50.10;;;;;;5030322;28;19912;-69
2024/02/06 08:59:23;;;;;;;16.80;6.22;;;14.00;50.00;;;;;;5028754;28;20573;-69
2024/02/06 09:01:49;;;;;;;13.30;6.05;;;14.40;49.70;;;;;;5030129;28;20409;-68
2024/02/06 09:04:14;;;;;;;12.00;5.55;;;14.80;48.70;;;;;;5029895;28;20494;-68
2024/02/06 09:06:40;;;;;;;9.25;4.68;;;15.20;47.20;;;;;;5029984;28;20022;-68
2024/02/06 09:09:06;;;;;;;10.43;3.95;;;15.50;45.50;;;;;;5029828;28;20072;-68
2024/02/06 09:11:32;;;;;;;12.65;4.88;;;15.80;43.00;;;;;;5028778;28;20040;-69
2024/02/06 09:13:58;;;;;;;10.85;4.28;;;15.90;42.30;;;;;;5029844;28;20055;-69
2024/02/06 09:16:25;;;;;;;10.80;5.03;;;16.20;40.10;;;;;;5029653;28;20678;-68
2024/02/06 09:18:55;;;;;;;8.82;4.78;;;16.10;39.70;;;;;;5029691;28;20029;-67
2024/02/06 09:21:21;;;;;;;13.40;4.85;;;16.20;40.80;;;;;;5029636;28;20060;-68
2024/02/06 09:23:46;;;;;;;12.52;4.90;;;16.30;40.20;;;;;;5055340;28;20087;-66
2024/02/06 09:26:15;;;;;;;16.42;4.97;;;16.50;39.60;;;;;;5051385;28;20036;-68
2024/02/06 09:28:44;;;;;;;9.68;4.78;;;16.70;39.10;;;;;;5068913;28;20040;-69
2024/02/06 09:31:11;;;;;;;12.90;5.10;;;17.00;38.20;;;;;;5069406;28;20538;-68
2024/02/06 09:33:37;;;;;;;12.35;5.32;;;17.40;37.30;;;;;;5069278;28;20111;-68
2024/02/06 09:36:04;;;;;;;11.13;4.68;;;17.70;36.30;;;;;;5069169;28;20104;-68
2024/02/06 09:38:29;;;;;;;11.48;5.55;;;17.80;35.80;;;;;;5051110;28;20928;-68
2024/02/06 09:40:56;;;;;;;12.18;5.40;;;17.90;35.70;;;;;;5069092;28;20032;-68
2024/02/06 09:43:23;;;;;;;14.07;5.07;;;18.20;34.30;;;;;;5069063;28;20051;-69
2024/02/06 09:45:49;;;;;;;7.43;3.60;;;18.10;34.20;;;;;;5069077;28;20029;-67
2024/02/06 09:48:15;;;;;;;13.90;4.55;;;18.00;32.70;;;;;;5051223;28;20029;-68
2024/02/06 09:50:42;;;;;;;9.45;3.80;;;17.80;33.10;;;;;;5068969;28;20032;-68
2024/02/06 09:53:09;;;;;;;9.95;2.97;;;17.60;33.40;;;;;;5050965;28;20031;-68
2024/02/06 09:55:40;;;;;;;8.10;2.55;;;17.40;32.60;;;;;;5068868;28;20036;-69
2024/02/06 09:58:10;;;;;;;9.13;2.45;;;17.40;32.40;;;;;;5068795;28;20024;-67
2024/02/06 10:00:39;;;;;;;7.07;3.00;;;17.30;32.20;;;;;;5050892;28;20033;-68
2024/02/06 10:03:12;;;;;;;11.45;3.38;;;17.20;33.50;;;;;;5050873;28;20135;-66
2024/02/06 10:05:42;;;;;;;7.00;3.22;;;16.90;33.00;;;;;;5068796;28;20577;-69
2024/02/06 10:08:10;;;;;;;6.32;2.83;;;16.70;33.40;;;;;;5050975;28;20115;-68
2024/02/06 10:10:36;;;;;;;9.25;2.97;;;16.60;33.90;;;;;;5068655;28;20056;-68
2024/02/06 10:13:04;;;;;;;9.32;4.13;;;16.40;34.00;;;;;;5068731;28;20492;-68
2024/02/06 10:15:30;;;;;;;9.77;3.92;;;16.40;33.10;;;;;;5068592;28;20020;-69
2024/02/06 10:17:57;;;;;;;8.32;3.55;;;16.10;34.10;;;;;;5050454;28;20033;-68
2024/02/06 10:20:22;;;;;;;11.38;4.25;;;16.10;34.20;;;;;;5050648;28;20052;-68
2024/02/06 10:22:48;;;;;;;10.15;3.08;;;15.90;35.20;;;;;;5068447;28;20083;-69
2024/02/06 10:25:14;;;;;;;10.13;1.38;;;15.70;34.90;;;;;;5050453;28;20060;-68
2024/02/06 10:27:40;;;;;;;7.43;1.38;;;15.50;33.30;;;;;;5068585;28;20028;-68
2024/02/06 10:30:12;;;;;;;8.82;1.42;;;15.50;31.90;;;;;;5050640;28;20029;-68
2024/02/06 10:32:38;;;;;;;5.25;1.17;;;15.50;31.60;;;;;;5068356;28;20025;-66
2024/02/06 10:35:08;;;;;;;5.28;1.25;;;15.60;31.60;;;;;;5050506;28;20025;-68
2024/02/06 10:37:41;;;;;;;9.05;1.30;;;15.80;29.40;;;;;;5068377;28;20031;-69
2024/02/06 10:40:11;;;;;;;7.50;1.38;;;16.00;28.20;;;;;;5070123;28;20104;-67
2024/02/06 10:42:38;;;;;;;5.82;1.52;;;16.00;27.90;;;;;;5072788;28;20462;-69
2024/02/06 10:45:04;;;;;;;7.70;1.33;;;16.10;28.10;;;;;;5054580;28;20127;-68
2024/02/06 10:47:31;;;;;;;9.32;1.10;;;16.40;27.20;;;;;;5072652;28;20017;-68
2024/02/06 10:50:06;;;;;;;7.88;1.20;;;16.60;25.90;;;;;;5072526;28;20112;-68
2024/02/06 10:52:33;;;;;;;7.85;1.42;;;16.70;25.90;;;;;;5072400;28;20553;-69
2024/02/06 10:54:59;;;;;;;12.45;1.70;;;16.70;26.20;;;;;;5054323;28;20118;-67
2024/02/06 10:57:27;;;;;;;7.10;1.25;;;16.70;26.40;;;;;;5072157;28;20025;-69
2024/02/06 11:00:19;;;;;;;10.90;1.60;;;16.90;25.40;;;;;;5072116;28;20024;-68
2024/02/06 11:02:51;;;;;;;5.72;0.90;;;16.90;25.30;;;;;;5072032;28;20036;-68
2024/02/06 11:05:31;;;;;;;5.35;1.38;;;16.90;25.40;;;;;;5072071;28;20048;-68
2024/02/06 11:08:05;;;;;;;4.25;0.95;;;17.00;24.70;;;;;;5071894;28;20040;-69
2024/02/06 11:10:41;;;;;;;8.88;1.38;;;17.10;24.50;;;;;;5071913;28;20142;-68
2024/02/06 11:13:11;;;;;;;3.13;0.93;;;17.10;25.10;;;;;;5072189;28;20465;-68
2024/02/06 11:15:40;;;;;;;4.00;0.95;;;17.00;24.50;;;;;;5071925;28;20036;-66
2024/02/06 11:18:12;;;;;;;6.15;1.95;;;17.00;24.60;;;;;;5071618;28;20021;-68
2024/02/06 11:20:40;;;;;;;5.32;0.93;;;17.10;23.90;;;;;;5071701;28;20032;-69
2024/02/06 11:23:09;;;;;;;17.55;2.78;;;17.10;24.00;;;;;;5071471;28;20044;-68
2024/02/06 11:25:39;;;;;;;6.68;1.65;;;17.10;24.80;;;;;;5071587;28;20024;-68
2024/02/06 11:28:06;;;;;;;8.48;1.40;;;17.10;24.00;;;;;;5071685;28;20046;-69
2024/02/06 11:30:33;;;;;;;7.13;1.33;;;17.10;24.10;;;;;;5071509;28;20024;-68
2024/02/06 11:33:07;;;;;;;6.63;1.58;;;17.20;23.30;;;;;;5071584;28;20025;-68
2024/02/06 11:35:35;;;;;;;12.00;1.60;;;17.10;23.30;;;;;;5071581;28;20024;-68
2024/02/06 11:38:01;;;;;;;5.85;1.15;;;17.10;23.60;;;;;;5071495;28;20024;-68
2024/02/06 11:40:28;;;;;;;8.23;1.27;;;17.20;23.50;;;;;;5053825;28;20559;-69
2024/02/06 11:43:09;;;;;;;4.15;1.33;;;17.20;24.10;;;;;;5071445;28;20073;-68
2024/02/06 11:45:37;;;;;;;9.55;2.75;;;17.10;25.80;;;;;;5053276;28;20102;-68
2024/02/06 11:48:08;;;;;;;4.68;1.92;;;17.10;25.00;;;;;;5071260;28;20047;-68
2024/02/06 11:50:41;;;;;;;6.65;1.48;;;17.00;26.60;;;;;;5071321;28;20035;-68
2024/02/06 11:53:11;;;;;;;5.25;1.30;;;17.00;26.70;;;;;;5052705;28;20028;-67
2024/02/06 11:55:37;;;;;;;6.90;1.63;;;17.00;27.10;;;;;;5053309;28;20025;-68
2024/02/06 11:58:03;;;;;;;7.30;1.38;;;16.90;27.10;;;;;;5053027;28;20036;-68
2024/02/06 12:00:29;;;;;;;10.07;1.48;;;16.90;27.40;;;;;;5071142;28;20027;-69
2024/02/06 12:02:56;;;;;;;17.48;1.88;;;16.90;26.30;;;;;;5070933;28;20028;-68
2024/02/06 12:05:22;;;;;;;9.18;1.58;;;17.00;26.60;;;;;;5070855;28;20641;-68
2024/02/06 12:07:55;;;;;;;8.30;1.40;;;17.00;25.80;;;;;;5070916;28;20099;-69
2024/02/06 12:10:30;;;;;;;5.43;1.15;;;17.00;26.40;;;;;;5052926;28;20033;-69
2024/02/06 12:13:00;;;;;;;8.52;1.30;;;17.10;25.80;;;;;;5070886;28;20098;-68
2024/02/06 12:15:28;;;;;;;6.18;1.35;;;17.00;26.00;;;;;;5071075;28;20103;-68
2024/02/06 12:17:54;;;;;;;6.88;1.15;;;16.90;26.60;;;;;;5052773;28;20039;-69
2024/02/06 12:20:20;;;;;;;9.73;1.35;;;17.00;26.10;;;;;;5069725;28;20040;-66
2024/02/06 12:23:03;;;;;;;6.30;0.95;;;17.00;25.90;;;;;;5046703;28;20052;-68
2024/02/06 12:25:32;;;;;;;7.43;1.15;;;16.90;26.00;;;;;;5070350;28;20036;-68
2024/02/06 12:27:59;;;;;;;11.80;1.40;;;16.80;26.00;;;;;;5052487;28;20027;-69
2024/02/06 12:30:28;;;;;;;8.43;2.17;;;16.70;26.40;;;;;;5070107;28;20028;-68
2024/02/06 12:32:58;;;;;;;7.75;1.65;;;16.60;27.30;;;;;;5052236;28;20028;-69
2024/02/06 12:35:24;;;;;;;10.20;1.65;;;16.50;28.00;;;;;;5070045;28;20024;-67
2024/02/06 12:37:49;;;;;;;6.63;2.13;;;16.50;28.30;;;;;;5070342;28;20094;-69
2024/02/06 12:40:18;;;;;;;10.38;2.70;;;16.60;27.80;;;;;;5070292;28;20028;-67
2024/02/06 12:42:46;;;;;;;7.10;1.40;;;16.60;27.70;;;;;;5069988;28;20103;-66
2024/02/06 12:45:13;;;;;;;7.70;1.60;;;16.60;27.80;;;;;;5052243;28;20133;-69
2024/02/06 12:47:39;;;;;;;7.65;1.60;;;16.50;28.30;;;;;;5070174;28;20046;-69
2024/02/06 12:50:08;;;;;;;8.82;1.33;;;16.60;28.60;;;;;;5051884;28;20131;-69
2024/02/06 12:52:34;;;;;;;5.43;1.30;;;16.60;27.90;;;;;;5070069;28;20154;-69
2024/02/06 12:55:00;;;;;;;10.32;1.55;;;16.50;28.30;;;;;;5069842;28;20044;-69
2024/02/06 12:57:26;;;;;;;8.52;1.30;;;16.50;28.30;;;;;;5069757;28;20020;-69
2024/02/06 12:59:52;;;;;;;4.60;1.27;;;16.50;28.30;;;;;;5069806;28;20032;-68
2024/02/06 13:02:18;;;;;;;7.10;1.27;;;16.40;28.80;;;;;;5051586;28;20046;-69
2024/02/06 13:04:43;;;;;;;10.52;1.45;;;16.40;29.00;;;;;;5068697;28;20029;-68
2024/02/06 13:07:25;;;;;;;7.30;1.40;;;16.50;28.50;;;;;;5051662;28;20024;-69